createdAt,value
2019-05-18T00:01:36.093Z,99.90
2019-05-18T00:04:05.392Z,99.90
2019-05-18T00:06:34.704Z,99.90
2019-05-18T00:09:06.087Z,99.90
2019-05-18T00:11:35.394Z,99.90
2019-05-18T00:14:04.865Z,99.90
2019-05-18T00:16:35.070Z,99.90
2019-05-18T00:19:04.372Z,99.90
2019-05-18T00:21:33.756Z,99.90
2019-05-18T00:24:03.062Z,99.90
2019-05-18T00:26:32.374Z,99.90
2019-05-18T00:29:01.758Z,99.90
2019-05-18T00:31:31.166Z,99.90
2019-05-18T00:34:00.480Z,99.90
2019-05-18T00:36:29.788Z,99.90
2019-05-18T00:38:59.109Z,99.90
2019-05-18T00:41:28.416Z,99.90
2019-05-18T00:43:57.744Z,99.90
2019-05-18T00:46:27.052Z,99.90
2019-05-18T00:48:57.358Z,99.90
2019-05-18T00:51:27.286Z,99.90
2019-05-18T00:53:56.589Z,99.90
2019-05-18T00:56:25.902Z,99.90
2019-05-18T00:58:55.226Z,99.90
2019-05-18T01:01:24.539Z,99.90
2019-05-18T01:03:53.864Z,99.90
2019-05-18T01:06:23.177Z,99.90
2019-05-18T01:08:52.489Z,99.90
2019-05-18T01:11:22.564Z,99.90
2019-05-18T01:13:51.928Z,99.90
2019-05-18T01:16:21.234Z,99.90
2019-05-18T01:18:50.565Z,99.90
2019-05-18T01:21:19.870Z,99.90
2019-05-18T01:23:49.173Z,99.90
2019-05-18T01:26:18.492Z,99.90
2019-05-18T01:28:47.797Z,99.90
2019-05-18T01:31:17.112Z,99.90
2019-05-18T01:33:46.418Z,99.90
2019-05-18T01:36:15.741Z,99.90
2019-05-18T01:38:45.125Z,99.90
2019-05-18T01:41:14.512Z,99.90
2019-05-18T01:43:43.816Z,99.90
2019-05-18T01:46:13.201Z,99.90
2019-05-18T01:48:43.121Z,99.90
2019-05-18T01:51:12.433Z,99.90
2019-05-18T01:53:41.981Z,99.90
2019-05-18T01:56:11.330Z,99.90
2019-05-18T01:58:40.642Z,99.90
2019-05-18T02:01:09.949Z,99.90
2019-05-18T02:03:39.282Z,99.90
2019-05-18T02:06:08.585Z,99.90
2019-05-18T02:08:37.893Z,99.90
2019-05-18T02:11:07.206Z,99.90
2019-05-18T02:13:37.809Z,99.90
2019-05-18T02:16:07.142Z,99.90
2019-05-18T02:18:36.543Z,99.90
2019-05-18T02:21:05.877Z,99.90
2019-05-18T02:23:35.189Z,99.90
2019-05-18T02:26:04.499Z,99.90
2019-05-18T02:28:35.228Z,99.90
2019-05-18T02:31:04.608Z,99.90
2019-05-18T02:33:33.932Z,99.90
2019-05-18T02:36:03.244Z,99.90
2019-05-18T02:38:32.549Z,99.90
2019-05-18T02:41:01.937Z,99.90
2019-05-18T02:43:31.317Z,99.90
2019-05-18T02:46:01.210Z,99.90
2019-05-18T02:48:47.881Z,99.90
2019-05-18T02:51:01.634Z,99.90
2019-05-18T02:53:31.001Z,99.90
2019-05-18T02:56:00.390Z,99.90
2019-05-18T02:58:29.764Z,99.90
2019-05-18T03:00:59.075Z,99.90
2019-05-18T03:03:28.446Z,99.90
2019-05-18T03:05:58.320Z,99.90
2019-05-18T03:08:28.156Z,99.90
2019-05-18T03:10:57.462Z,99.90
2019-05-18T03:13:26.779Z,99.90
2019-05-18T03:15:56.530Z,99.90
2019-05-18T03:18:25.837Z,99.90
2019-05-18T03:20:55.159Z,99.90
2019-05-18T03:23:24.514Z,99.90
2019-05-18T03:25:54.274Z,99.90
2019-05-18T03:28:23.578Z,99.90
2019-05-18T03:30:52.892Z,99.90
2019-05-18T03:33:28.467Z,99.90
2019-05-18T03:35:53.371Z,99.90
2019-05-18T03:38:42.039Z,99.90
2019-05-18T03:41:11.354Z,99.90
2019-05-18T03:43:40.762Z,99.90
2019-05-18T03:46:10.257Z,99.90
2019-05-18T03:48:39.557Z,99.90
2019-05-18T03:51:08.880Z,99.90
2019-05-18T03:53:38.188Z,99.90
2019-05-18T03:56:07.577Z,99.90
2019-05-18T03:58:36.886Z,99.90
2019-05-18T04:01:06.200Z,99.90
2019-05-18T04:03:36.102Z,99.90
2019-05-18T04:06:05.411Z,99.90
2019-05-18T04:08:34.731Z,99.90
2019-05-18T04:11:04.039Z,99.90
2019-05-18T04:13:33.354Z,99.90
2019-05-18T04:16:02.797Z,99.90
2019-05-18T04:18:32.162Z,99.90
2019-05-18T04:21:05.418Z,99.90
2019-05-18T04:23:34.736Z,99.90
2019-05-18T04:26:04.981Z,99.90
2019-05-18T04:28:34.292Z,99.90
2019-05-18T04:31:03.578Z,99.90
2019-05-18T04:33:32.897Z,99.90
2019-05-18T04:36:02.228Z,99.90
2019-05-18T04:38:31.539Z,99.90
2019-05-18T04:41:00.845Z,99.90
2019-05-18T04:43:30.160Z,99.90
2019-05-18T04:45:59.473Z,99.90
2019-05-18T04:48:28.783Z,99.90
2019-05-18T04:50:58.110Z,99.90
2019-05-18T04:53:27.417Z,99.90
2019-05-18T04:55:56.735Z,99.90
2019-05-18T04:58:26.042Z,99.90
2019-05-18T05:00:55.345Z,99.90
2019-05-18T05:03:24.719Z,99.90
2019-05-18T05:05:54.094Z,99.90
2019-05-18T05:08:23.436Z,99.90
2019-05-18T05:10:52.783Z,99.90
2019-05-18T05:13:22.085Z,99.90
2019-05-18T05:15:53.270Z,99.90
2019-05-18T05:18:23.653Z,99.90
2019-05-18T05:20:52.973Z,99.90
2019-05-18T05:23:22.281Z,99.90
2019-05-18T05:25:51.578Z,99.90
2019-05-18T05:28:20.881Z,99.90
2019-05-18T05:30:50.192Z,99.90
2019-05-18T05:33:20.091Z,99.90
2019-05-18T05:35:49.393Z,99.90
2019-05-18T05:38:18.705Z,99.90
2019-05-18T05:40:48.050Z,99.90
2019-05-18T05:43:17.346Z,99.90
2019-05-18T05:45:46.653Z,99.90
2019-05-18T05:48:15.948Z,99.90
2019-05-18T05:50:45.258Z,99.90
2019-05-18T05:53:15.445Z,99.90
2019-05-18T05:55:44.741Z,99.90
2019-05-18T05:58:14.057Z,99.90
2019-05-18T06:00:43.388Z,99.90
2019-05-18T06:03:12.758Z,99.90
2019-05-18T06:05:42.064Z,99.90
2019-05-18T06:08:11.374Z,99.90
2019-05-18T06:10:41.806Z,99.90
2019-05-18T06:13:11.122Z,99.90
2019-05-18T06:15:40.441Z,99.90
2019-05-18T06:18:09.749Z,99.90
2019-05-18T06:20:50.849Z,99.90
2019-05-18T06:23:12.880Z,99.90
2019-05-18T06:25:42.195Z,99.90
2019-05-18T06:28:11.505Z,99.90
2019-05-18T06:30:40.822Z,99.90
2019-05-18T06:33:10.241Z,99.90
2019-05-18T06:35:40.385Z,99.90
2019-05-18T06:38:09.707Z,99.90
2019-05-18T06:40:39.021Z,99.90
2019-05-18T06:43:08.338Z,99.90
2019-05-18T06:45:37.655Z,99.90
2019-05-18T06:48:06.966Z,99.90
2019-05-18T06:50:36.290Z,99.90
2019-05-18T06:53:05.618Z,99.90
2019-05-18T06:55:35.100Z,99.90
2019-05-18T06:58:04.477Z,99.90
2019-05-18T07:00:33.796Z,99.90
2019-05-18T07:03:03.134Z,99.90
2019-05-18T07:05:32.449Z,99.90
2019-05-18T07:08:01.762Z,99.90
2019-05-18T07:10:31.099Z,99.90
2019-05-18T07:13:00.411Z,99.90
2019-05-18T07:15:29.737Z,99.90
2019-05-18T07:17:59.054Z,99.90
2019-05-18T07:20:28.371Z,99.90
2019-05-18T07:22:58.745Z,99.90
2019-05-18T07:25:28.055Z,99.20
2019-05-18T07:27:57.373Z,99.70
2019-05-18T07:30:26.688Z,97.80
2019-05-18T07:32:56.005Z,97.00
2019-05-18T07:35:25.394Z,95.80
2019-05-18T07:37:54.712Z,96.30
2019-05-18T07:40:24.130Z,95.30
2019-05-18T07:42:53.519Z,95.80
2019-05-18T07:45:22.833Z,95.50
2019-05-18T07:47:52.146Z,96.30
2019-05-18T07:50:21.546Z,95.80
2019-05-18T07:52:50.874Z,95.40
2019-05-18T07:55:20.185Z,94.60
2019-05-18T07:57:49.510Z,96.00
2019-05-18T08:00:18.894Z,96.90
2019-05-18T08:02:48.200Z,93.40
2019-05-18T08:05:17.532Z,93.70
2019-05-18T08:07:46.841Z,93.20
2019-05-18T08:10:19.268Z,92.60
2019-05-18T08:12:48.577Z,93.60
2019-05-18T08:15:19.233Z,92.60
2019-05-18T08:17:48.533Z,92.40
2019-05-18T08:20:17.849Z,91.00
2019-05-18T08:22:47.173Z,90.50
2019-05-18T08:25:17.927Z,91.20
2019-05-18T08:27:47.261Z,91.00
2019-05-18T08:30:16.695Z,90.80
2019-05-18T08:32:46.014Z,91.10
2019-05-18T08:35:15.874Z,91.90
2019-05-18T08:37:45.186Z,85.90
2019-05-18T08:40:14.643Z,87.40
2019-05-18T08:42:43.949Z,84.50
2019-05-18T08:45:13.494Z,84.60
2019-05-18T08:47:42.805Z,79.00
2019-05-18T08:50:12.251Z,83.30
2019-05-18T08:52:42.197Z,82.50
2019-05-18T08:55:13.353Z,78.40
2019-05-18T08:57:42.709Z,86.20
2019-05-18T09:00:12.517Z,79.90
2019-05-18T09:02:41.833Z,77.40
2019-05-18T09:05:11.649Z,76.80
2019-05-18T09:07:41.019Z,75.50
2019-05-18T09:10:10.957Z,75.20
2019-05-18T09:12:40.265Z,71.70
2019-05-18T09:15:10.109Z,74.10
2019-05-18T09:17:39.440Z,73.40
2019-05-18T09:20:09.282Z,74.40
2019-05-18T09:22:38.649Z,77.00
2019-05-18T09:25:08.491Z,73.80
2019-05-18T09:27:41.077Z,74.90
2019-05-18T09:30:11.472Z,76.60
2019-05-18T09:32:40.875Z,77.90
2019-05-18T09:35:10.658Z,79.10
2019-05-18T09:37:39.959Z,71.30
2019-05-18T09:40:09.898Z,70.40
2019-05-18T09:42:39.208Z,65.00
2019-05-18T09:45:09.109Z,61.10
2019-05-18T09:47:38.414Z,64.80
2019-05-18T09:50:08.525Z,66.80
2019-05-18T09:52:46.157Z,69.00
2019-05-18T09:55:09.398Z,62.50
2019-05-18T09:57:38.721Z,69.30
2019-05-18T10:00:10.370Z,66.00
2019-05-18T10:02:39.677Z,67.40
2019-05-18T10:05:09.425Z,67.30
2019-05-18T10:07:38.734Z,64.10
2019-05-18T10:10:08.813Z,65.20
2019-05-18T10:12:38.492Z,66.80
2019-05-18T10:15:08.877Z,63.00
2019-05-18T10:17:38.246Z,62.20
2019-05-18T10:20:08.999Z,60.60
2019-05-18T10:22:51.215Z,56.90
2019-05-18T10:25:10.055Z,58.20
2019-05-18T10:27:39.381Z,59.80
2019-05-18T10:30:10.789Z,57.10
2019-05-18T10:32:40.115Z,62.10
2019-05-18T10:35:09.983Z,55.90
2019-05-18T10:37:39.362Z,60.20
2019-05-18T10:40:09.117Z,57.30
2019-05-18T10:42:38.429Z,54.70
2019-05-18T10:45:09.171Z,53.60
2019-05-18T10:47:38.482Z,54.30
2019-05-18T10:50:08.039Z,55.70
2019-05-18T10:52:37.353Z,52.00
2019-05-18T10:55:07.681Z,49.80
2019-05-18T10:57:36.990Z,48.90
2019-05-18T11:00:11.206Z,52.00
2019-05-18T11:02:40.659Z,49.40
2019-05-18T11:05:10.888Z,49.60
2019-05-18T11:07:40.203Z,48.50
2019-05-18T11:10:10.806Z,46.70
2019-05-18T11:12:41.094Z,46.60
2019-05-18T11:15:12.736Z,49.20
2019-05-18T11:17:42.063Z,45.20
2019-05-18T11:20:12.895Z,52.80
2019-05-18T11:22:42.217Z,46.40
2019-05-18T11:25:12.569Z,44.80
2019-05-18T11:27:43.389Z,47.60
2019-05-18T11:30:15.622Z,51.50
2019-05-18T11:32:44.990Z,48.80
2019-05-18T11:35:15.105Z,47.50
2019-05-18T11:37:44.450Z,47.00
2019-05-18T11:40:14.207Z,48.70
2019-05-18T11:42:49.424Z,47.20
2019-05-18T11:45:20.711Z,49.10
2019-05-18T11:47:50.658Z,52.40
2019-05-18T11:50:20.501Z,45.50
2019-05-18T11:52:49.810Z,45.10
2019-05-18T11:55:19.258Z,43.30
2019-05-18T11:57:48.664Z,42.50
2019-05-18T12:00:18.646Z,45.00
2019-05-18T12:02:47.950Z,45.20
2019-05-18T12:05:17.549Z,44.40
2019-05-18T12:07:46.924Z,42.90
2019-05-18T12:10:18.686Z,42.60
2019-05-18T12:12:48.240Z,43.40
2019-05-18T12:15:18.192Z,40.80
2019-05-18T12:17:47.490Z,41.80
2019-05-18T12:20:18.409Z,44.00
2019-05-18T12:22:48.593Z,41.60
2019-05-18T12:25:17.902Z,41.20
2019-05-18T12:27:47.248Z,39.90
2019-05-18T12:30:17.161Z,43.50
2019-05-18T12:32:46.473Z,41.30
2019-05-18T12:35:16.450Z,41.80
2019-05-18T12:37:46.725Z,44.50
2019-05-18T12:40:19.722Z,45.60
2019-05-18T12:42:49.022Z,48.80
2019-05-18T12:45:18.865Z,45.00
2019-05-18T12:47:48.177Z,42.60
2019-05-18T12:50:18.428Z,41.30
2019-05-18T12:52:47.742Z,40.60
2019-05-18T12:55:17.591Z,43.30
2019-05-18T12:57:47.723Z,39.70
2019-05-18T13:00:18.049Z,39.70
2019-05-18T13:02:47.349Z,39.20
2019-05-18T13:05:16.821Z,40.90
2019-05-18T13:07:46.217Z,38.20
2019-05-18T13:10:17.652Z,37.70
2019-05-18T13:12:47.742Z,38.50
2019-05-18T13:15:19.344Z,38.80
2019-05-18T13:17:48.723Z,39.20
2019-05-18T13:20:18.867Z,40.60
2019-05-18T13:22:48.246Z,38.40
2019-05-18T13:25:17.980Z,39.80
2019-05-18T13:27:48.184Z,34.90
2019-05-18T13:30:19.946Z,35.50
2019-05-18T13:32:48.863Z,34.20
2019-05-18T13:35:18.350Z,32.80
2019-05-18T13:37:47.687Z,34.50
2019-05-18T13:40:17.581Z,36.70
2019-05-18T13:42:46.891Z,34.70
2019-05-18T13:45:16.835Z,34.40
2019-05-18T13:47:46.138Z,32.80
2019-05-18T13:50:15.898Z,33.50
2019-05-18T13:52:45.221Z,34.00
2019-05-18T13:55:14.529Z,35.00
2019-05-18T13:57:43.850Z,35.50
2019-05-18T14:00:14.686Z,35.80
2019-05-18T14:02:44.091Z,38.50
2019-05-18T14:05:13.946Z,35.40
2019-05-18T14:07:43.249Z,35.30
2019-05-18T14:10:12.932Z,33.90
2019-05-18T14:12:42.283Z,33.90
2019-05-18T14:15:12.536Z,38.20
2019-05-18T14:17:41.835Z,37.70
2019-05-18T14:20:11.793Z,35.80
2019-05-18T14:22:41.100Z,37.00
2019-05-18T14:25:19.255Z,35.80
2019-05-18T14:27:42.087Z,35.60
2019-05-18T14:30:12.657Z,36.60
2019-05-18T14:32:42.522Z,39.70
2019-05-18T14:35:12.164Z,37.30
2019-05-18T14:37:41.490Z,39.30
2019-05-18T14:40:11.332Z,39.20
2019-05-18T14:42:40.723Z,34.70
2019-05-18T14:45:10.778Z,34.20
2019-05-18T14:47:40.113Z,36.40
2019-05-18T14:50:10.886Z,36.90
2019-05-18T14:52:40.194Z,37.80
2019-05-18T14:55:09.639Z,37.00
2019-05-18T14:57:39.053Z,34.60
2019-05-18T15:00:09.177Z,37.50
2019-05-18T15:02:38.481Z,38.80
2019-05-18T15:05:08.526Z,38.40
2019-05-18T15:07:37.834Z,37.40
2019-05-18T15:10:08.755Z,35.60
2019-05-18T15:12:38.066Z,34.00
2019-05-18T15:15:08.825Z,35.80
2019-05-18T15:17:38.166Z,35.70
2019-05-18T15:20:09.361Z,37.40
2019-05-18T15:22:38.682Z,38.20
2019-05-18T15:25:09.301Z,41.50
2019-05-18T15:27:39.224Z,42.60
2019-05-18T15:30:09.161Z,43.60
2019-05-18T15:32:38.479Z,47.50
2019-05-18T15:37:32.134Z,47.20
2019-05-18T15:40:01.448Z,46.80
2019-05-18T15:42:31.017Z,46.00
2019-05-18T15:45:00.386Z,47.50
2019-05-18T15:47:29.739Z,47.70
2019-05-18T15:49:59.070Z,45.00
2019-05-18T15:52:29.385Z,46.30
2019-05-18T15:54:58.690Z,48.60
2019-05-18T15:57:28.041Z,47.50
2019-05-18T15:59:57.421Z,47.10
2019-05-18T16:02:26.877Z,48.70
2019-05-18T16:04:58.799Z,51.00
2019-05-18T16:07:28.133Z,50.10
2019-05-18T16:09:57.460Z,50.10
2019-05-18T16:12:26.773Z,49.20
2019-05-18T16:14:56.077Z,48.20
2019-05-18T16:17:38.416Z,49.50
2019-05-18T16:19:56.393Z,50.30
2019-05-18T16:22:26.625Z,52.60
2019-05-18T16:24:55.935Z,54.20
2019-05-18T16:27:25.259Z,53.60
2019-05-18T16:29:54.821Z,54.70
2019-05-18T16:32:24.133Z,56.60
2019-05-18T16:34:54.253Z,56.20
2019-05-18T16:37:23.558Z,56.60
2019-05-18T16:39:52.862Z,56.80
2019-05-18T16:42:22.181Z,57.20
2019-05-18T16:44:51.485Z,57.50
2019-05-18T16:47:20.807Z,57.30
2019-05-18T16:49:50.105Z,58.70
2019-05-18T16:52:19.410Z,58.60
2019-05-18T16:54:48.718Z,59.10
2019-05-18T16:57:18.022Z,60.00
2019-05-18T16:59:48.825Z,60.70
2019-05-18T17:02:30.663Z,61.10
2019-05-18T17:04:49.241Z,62.30
2019-05-18T17:07:18.562Z,60.20
2019-05-18T17:09:47.873Z,61.30
2019-05-18T17:12:17.193Z,62.30
2019-05-18T17:14:46.489Z,64.00
2019-05-18T17:17:15.793Z,63.90
2019-05-18T17:19:45.699Z,66.20
2019-05-18T17:22:15.006Z,67.50
2019-05-18T17:24:44.309Z,66.20
2019-05-18T17:27:13.770Z,68.10
2019-05-18T17:29:43.081Z,70.40
2019-05-18T17:32:12.443Z,71.40
2019-05-18T17:34:41.906Z,71.90
2019-05-18T17:37:12.355Z,74.10
2019-05-18T17:39:41.710Z,74.50
2019-05-18T17:42:11.025Z,75.80
2019-05-18T17:44:40.325Z,76.10
2019-05-18T17:47:09.654Z,75.40
2019-05-18T17:49:38.958Z,77.60
2019-05-18T17:52:08.266Z,78.80
2019-05-18T17:54:37.598Z,77.80
2019-05-18T17:57:08.958Z,77.10
2019-05-18T17:59:39.251Z,77.90
2019-05-18T18:02:08.570Z,78.50
2019-05-18T18:04:37.882Z,79.20
2019-05-18T18:07:07.190Z,79.30
2019-05-18T18:09:36.493Z,80.20
2019-05-18T18:12:05.843Z,80.90
2019-05-18T18:14:35.206Z,81.40
2019-05-18T18:17:04.673Z,81.80
2019-05-18T18:19:34.034Z,82.30
2019-05-18T18:22:03.710Z,82.70
2019-05-18T18:24:33.074Z,83.60
2019-05-18T18:27:02.377Z,85.60
2019-05-18T18:29:32.853Z,85.10
2019-05-18T18:32:02.173Z,85.70
2019-05-18T18:34:31.538Z,86.80
2019-05-18T18:37:01.781Z,87.70
2019-05-18T18:39:32.069Z,88.60
2019-05-18T18:42:13.280Z,89.20
2019-05-18T18:44:42.589Z,89.80
2019-05-18T18:47:11.940Z,90.40
2019-05-18T18:49:41.327Z,90.50
2019-05-18T18:52:10.621Z,90.70
2019-05-18T18:54:40.003Z,91.00
2019-05-18T18:57:09.309Z,91.40
2019-05-18T18:59:39.551Z,91.70
2019-05-18T19:02:08.853Z,92.10
2019-05-18T19:04:39.242Z,92.40
2019-05-18T19:07:09.225Z,92.70
2019-05-18T19:09:38.746Z,92.80
2019-05-18T19:12:08.522Z,93.00
2019-05-18T19:14:37.847Z,93.40
2019-05-18T19:17:07.223Z,93.60
2019-05-18T19:19:39.854Z,94.00
2019-05-18T19:22:07.546Z,94.00
2019-05-18T19:24:36.877Z,94.30
2019-05-18T19:27:06.247Z,94.60
2019-05-18T19:29:35.703Z,95.00
2019-05-18T19:32:05.005Z,95.30
2019-05-18T19:34:34.346Z,95.40
2019-05-18T19:37:03.726Z,95.40
2019-05-18T19:39:33.822Z,95.40
2019-05-18T19:42:03.139Z,95.50
2019-05-18T19:44:32.447Z,95.50
2019-05-18T19:47:01.749Z,95.60
2019-05-18T19:49:31.278Z,95.60
2019-05-18T19:52:00.581Z,95.70
2019-05-18T19:54:29.923Z,95.90
2019-05-18T19:56:59.286Z,96.20
2019-05-18T19:59:29.083Z,96.60
2019-05-18T20:01:58.449Z,96.90
2019-05-18T20:04:27.770Z,97.20
2019-05-18T20:06:57.079Z,97.70
2019-05-18T20:09:26.388Z,97.80
2019-05-18T20:11:55.721Z,98.10
2019-05-18T20:14:25.031Z,98.50
2019-05-18T20:16:54.395Z,98.80
2019-05-18T20:19:38.210Z,99.10
2019-05-18T20:21:54.841Z,99.30
2019-05-18T20:24:25.093Z,99.70
2019-05-18T20:26:54.407Z,99.90
2019-05-18T20:29:23.717Z,99.90
2019-05-18T20:31:53.134Z,99.90
2019-05-18T20:34:22.439Z,99.90
2019-05-18T20:36:51.749Z,99.90
2019-05-18T20:39:21.077Z,99.90
2019-05-18T20:41:50.393Z,99.90
2019-05-18T20:44:19.716Z,99.90
2019-05-18T20:46:49.019Z,99.90
2019-05-18T20:49:18.337Z,99.90
2019-05-18T20:51:47.671Z,99.90
2019-05-18T20:54:16.971Z,99.90
2019-05-18T20:56:46.277Z,99.90
2019-05-18T20:59:15.595Z,99.90
2019-05-18T21:01:44.906Z,99.90
2019-05-18T21:04:15.198Z,99.90
2019-05-18T21:06:45.683Z,99.90
2019-05-18T21:09:15.374Z,99.90
2019-05-18T21:11:44.697Z,99.90
2019-05-18T21:14:14.084Z,99.90
2019-05-18T21:16:43.412Z,99.90
2019-05-18T21:19:12.727Z,99.90
2019-05-18T21:21:42.041Z,99.90
2019-05-18T21:24:11.417Z,99.90
2019-05-18T21:26:40.731Z,99.90
2019-05-18T21:29:10.061Z,99.90
2019-05-18T21:31:39.368Z,99.90
2019-05-18T21:34:08.681Z,99.90
2019-05-18T21:36:38.045Z,99.90
2019-05-18T21:39:07.349Z,99.90
2019-05-18T21:41:36.659Z,99.90
2019-05-18T21:44:06.615Z,99.90
2019-05-18T21:46:38.943Z,99.90
2019-05-18T21:49:06.961Z,99.90
2019-05-18T21:51:36.285Z,99.90
2019-05-18T21:54:05.610Z,99.90
2019-05-18T21:56:34.926Z,99.90
2019-05-18T21:59:11.937Z,99.90
2019-05-18T22:01:35.310Z,99.90
2019-05-18T22:04:04.616Z,99.90
2019-05-18T22:06:35.398Z,99.90
2019-05-18T22:09:06.243Z,99.90
2019-05-18T22:11:35.751Z,99.90
2019-05-18T22:14:05.655Z,99.90
2019-05-18T22:16:34.963Z,99.90
2019-05-18T22:19:04.273Z,99.90
2019-05-18T22:21:33.586Z,99.90
2019-05-18T22:24:02.987Z,99.90
2019-05-18T22:26:33.441Z,99.90
2019-05-18T22:29:02.762Z,99.90
2019-05-18T22:31:33.022Z,99.90
2019-05-18T22:34:02.459Z,99.90
2019-05-18T22:36:31.817Z,99.90
2019-05-18T22:39:01.150Z,99.90
2019-05-18T22:41:33.382Z,99.90
2019-05-18T22:44:03.096Z,99.90
2019-05-18T22:46:33.354Z,99.90
2019-05-18T22:49:02.738Z,99.90
2019-05-18T22:51:32.122Z,99.90
2019-05-18T22:54:01.461Z,99.90
2019-05-18T22:56:30.779Z,99.90
2019-05-18T22:59:00.074Z,99.90
2019-05-18T23:01:29.397Z,99.90
2019-05-18T23:03:58.714Z,99.90
2019-05-18T23:06:28.084Z,99.90
2019-05-18T23:08:57.466Z,99.90
2019-05-18T23:11:27.046Z,99.90
2019-05-18T23:13:56.373Z,99.90
2019-05-18T23:16:25.681Z,99.90
2019-05-18T23:18:57.165Z,99.90
2019-05-18T23:21:26.600Z,99.90
2019-05-18T23:23:56.973Z,99.90
2019-05-18T23:26:26.293Z,99.90
2019-05-18T23:28:55.642Z,99.90
2019-05-18T23:31:24.956Z,99.90
2019-05-18T23:33:54.266Z,99.90
2019-05-18T23:36:23.596Z,99.90
2019-05-18T23:38:52.922Z,99.90
2019-05-18T23:41:22.229Z,99.90
2019-05-18T23:43:52.958Z,99.90
2019-05-18T23:46:22.275Z,99.90
2019-05-18T23:48:52.912Z,99.90
2019-05-18T23:51:22.234Z,99.90
2019-05-18T23:53:53.787Z,99.90
2019-05-18T23:56:25.541Z,99.90
2019-05-18T23:58:54.849Z,99.90
